»·PEaware :: N9356Y KWHP-KSBD

N9356Y :: KWHP-KSBD

FLIGHT INFORMATION

Flight Status: Arrived
Operator: Privately registered:
United States
More flights under this callsign
Pilot: Jeff N. (86)
Aircraft: CESSNA 210 CENTURION
(C210)
More flights by this aircraft type
Origin: KWHP Whiteman
United States
Destination: KSBD San Bernardino Intl
United States
More flights between these airports :: More routes between these airports
Route: V186 PDZ
File this flight plan on PilotEdge
Remarks: TEC route BURN8
Altitude:
(Current/Filed)
5,000ft
Speed:
(Current/Filed)
140kts
Departed: 14-Dec-13 02:02 PM
Arrived: 14-Dec-13 02:38 PM
Distance/Time
Traveled:
60nm/0:36
Distance/Time
To Go:
Arrived

Flight Plot

Page will automatically refresh every two minutes.


Map Options




Map Legend


Flown Route
Filed Route
Departure Airport
Arrival Airport
Navaid (VOR, NDB)
Fix

Horizontal Profiles

Position Reports

Time Latitude Longitude Heading Altitude Ground
Speed
14-Dec-13 13:42 34.259502 -118.412243 136 1006ft 0kts
14-Dec-13 13:43 34.259502 -118.412243 136 1006ft 0kts
14-Dec-13 13:44 34.259502 -118.412243 136 1006ft 0kts
14-Dec-13 13:45 34.259502 -118.412243 136 1006ft 0kts
14-Dec-13 13:46 34.259502 -118.412243 136 1006ft 0kts
14-Dec-13 13:47 34.259502 -118.412243 136 1006ft 0kts
14-Dec-13 13:48 34.259502 -118.412243 136 1006ft 0kts
14-Dec-13 13:49 34.259502 -118.412243 136 1006ft 0kts
14-Dec-13 13:50 34.259502 -118.412243 136 1006ft 0kts
14-Dec-13 13:51 34.259502 -118.412243 136 1006ft 0kts
14-Dec-13 13:52 34.259502 -118.412243 136 1006ft 0kts
14-Dec-13 13:53 34.259502 -118.412243 136 1006ft 0kts
14-Dec-13 13:54 34.259502 -118.412243 136 1006ft 0kts
14-Dec-13 13:55 34.259502 -118.412243 136 1006ft 0kts
14-Dec-13 13:56 34.259409 -118.412198 132 1006ft 0kts
14-Dec-13 13:57 34.259329 -118.412198 227 1006ft 0kts
14-Dec-13 13:58 34.256562 -118.409950 137 1006ft 18kts
14-Dec-13 13:59 34.255532 -118.408900 163 1006ft 0kts
14-Dec-13 14:00 34.255532 -118.408900 163 1006ft 0kts
14-Dec-13 14:01 34.258095 -118.412201 318 1006ft 79kts
14-Dec-13 14:02 34.268067 -118.437423 271 2218ft 87kts
14-Dec-13 14:03 34.267465 -118.467364 274 3551ft 92kts
14-Dec-13 14:04 34.262820 -118.497321 203 4776ft 109kts
14-Dec-13 14:05 34.229090 -118.494344 154 4969ft 146kts
14-Dec-13 14:06 34.212164 -118.463989 98 4952ft 142kts
14-Dec-13 14:07 34.200607 -118.417505 107 4962ft 148kts
14-Dec-13 14:08 34.187287 -118.370113 108 4963ft 150kts
14-Dec-13 14:09 34.173064 -118.322282 110 4925ft 155kts
14-Dec-13 14:10 34.158693 -118.273867 107 4961ft 154kts
14-Dec-13 14:11 34.145238 -118.225131 112 4969ft 155kts
14-Dec-13 14:12 34.129748 -118.176358 113 4973ft 156kts
14-Dec-13 14:13 34.115267 -118.126471 112 4979ft 159kts
14-Dec-13 14:14 34.101133 -118.075642 108 4986ft 161kts
14-Dec-13 14:15 34.088288 -118.023721 109 5020ft 160kts
14-Dec-13 14:16 34.072137 -117.973487 117 5011ft 162kts
14-Dec-13 14:17 34.053422 -117.922992 113 5011ft 165kts
14-Dec-13 14:18 34.037663 -117.872173 112 5024ft 167kts
14-Dec-13 14:19 34.020873 -117.820171 111 5020ft 167kts
14-Dec-13 14:20 34.003173 -117.768689 111 4998ft 169kts
14-Dec-13 14:21 33.985376 -117.717479 110 4988ft 160kts
14-Dec-13 14:22 33.968982 -117.670657 108 4985ft 155kts
14-Dec-13 14:23 33.952506 -117.624001 109 4989ft 149kts
14-Dec-13 14:24 33.933998 -117.580760 110 4975ft 141kts
14-Dec-13 14:25 33.920595 -117.538445 106 4974ft 133kts
14-Dec-13 14:26 33.929396 -117.501053 51 4908ft 132kts
14-Dec-13 14:27 33.945081 -117.460539 64 4289ft 132kts
14-Dec-13 14:28 33.962848 -117.422263 48 3520ft 131kts
14-Dec-13 14:29 33.984412 -117.388284 49 2969ft 128kts
14-Dec-13 14:30 34.006340 -117.355353 45 2814ft 131kts
14-Dec-13 14:31 34.031335 -117.322254 44 2720ft 132kts
14-Dec-13 14:32 34.058105 -117.289630 43 2395ft 140kts
14-Dec-13 14:33 34.074027 -117.251401 72 2208ft 121kts
14-Dec-13 14:34 34.085504 -117.215614 73 2143ft 107kts
14-Dec-13 14:35 34.101060 -117.192361 341 1750ft 88kts
14-Dec-13 14:36 34.101500 -117.213991 245 1263ft 67kts
14-Dec-13 14:37 34.099208 -117.225045 282 1161ft 0kts
14-Dec-13 14:38 34.099208 -117.225045 282 1161ft 0kts
14-Dec-13 14:39 34.100164 -117.223841 69 1161ft 18kts
14-Dec-13 14:40 34.101530 -117.223971 88 1161ft 0kts
14-Dec-13 14:41 34.101530 -117.223971 88 1161ft 0kts
14-Dec-13 14:42 34.101530 -117.223971 88 1161ft 0kts
14-Dec-13 14:43 34.101530 -117.223971 88 1161ft 0kts
14-Dec-13 14:44 34.101530 -117.223971 88 1161ft 0kts
14-Dec-13 14:45 34.101530 -117.223971 88 1161ft 0kts
14-Dec-13 14:46 34.101530 -117.223971 88 1161ft 0kts
14-Dec-13 14:47 34.101530 -117.223971 88 1161ft 0kts
14-Dec-13 14:48 34.101530 -117.223971 88 1161ft 0kts
14-Dec-13 14:49 34.101530 -117.223971 88 1161ft 0kts
14-Dec-13 14:50 34.101530 -117.223971 88 1161ft 0kts
14-Dec-13 14:51 34.101530 -117.223971 88 1161ft 0kts

Navigation Log

Ident Type
Flight plan parsing failed, navigation log unavailable